createdAt,value
2022-09-30T00:01:55.292Z,100305.75
2022-09-30T00:04:25.913Z,100313.09
2022-09-30T00:06:56.136Z,100307.88
2022-09-30T00:09:24.606Z,100315.13
2022-09-30T00:11:53.268Z,100304.44
2022-09-30T00:14:23.918Z,100310.81
2022-09-30T00:16:52.166Z,100301.97
2022-09-30T00:19:20.534Z,100303.91
2022-09-30T00:21:48.886Z,100310.19
2022-09-30T00:24:18.537Z,100312.13
2022-09-30T00:26:46.734Z,100322.91
2022-09-30T00:29:15.076Z,100322.16
2022-09-30T00:31:43.563Z,100313.22
2022-09-30T00:34:12.212Z,100312.34
2022-09-30T00:36:44.577Z,100320.50
2022-09-30T00:39:16.266Z,100323.31
2022-09-30T00:41:48.683Z,100324.19
2022-09-30T00:44:53.919Z,100316.22
2022-09-30T00:47:43.622Z,100313.50
2022-09-30T00:50:31.053Z,100321.50
2022-09-30T00:53:08.776Z,100325.03
2022-09-30T00:55:55.852Z,100326.03
2022-09-30T00:58:31.460Z,100330.44
2022-09-30T01:01:02.796Z,100326.88
2022-09-30T01:03:33.370Z,100329.56
2022-09-30T01:06:01.667Z,100333.13
2022-09-30T01:08:32.209Z,100337.56
2022-09-30T01:11:04.520Z,100340.16
2022-09-30T01:13:38.276Z,100337.56
2022-09-30T01:16:43.081Z,100339.31
2022-09-30T01:20:18.904Z,100339.19
2022-09-30T01:23:02.333Z,100348.03
2022-09-30T01:26:02.309Z,100339.94
2022-09-30T01:29:18.793Z,100339.94
2022-09-30T01:32:04.604Z,100343.50
2022-09-30T01:34:47.430Z,100348.03
2022-09-30T01:37:26.269Z,100352.44
2022-09-30T01:40:06.289Z,100347.91
2022-09-30T01:42:43.962Z,100351.59
2022-09-30T01:45:19.749Z,100362.38
2022-09-30T01:47:57.833Z,100351.59
2022-09-30T01:50:37.398Z,100355.16
2022-09-30T01:53:16.310Z,100356.97
2022-09-30T01:55:53.140Z,100350.84
2022-09-30T01:58:32.949Z,100350.94
2022-09-30T02:01:07.311Z,100359.13
2022-09-30T02:03:40.978Z,100352.88
2022-09-30T02:06:15.011Z,100359.13
2022-09-30T02:08:51.984Z,100362.78
2022-09-30T02:11:25.289Z,100362.03
2022-09-30T02:14:00.001Z,100361.16
2022-09-30T02:16:34.827Z,100355.91
2022-09-30T02:19:16.283Z,100367.66
2022-09-30T02:21:47.905Z,100373.03
2022-09-30T02:24:20.174Z,100378.44
2022-09-30T02:26:50.210Z,100369.47
2022-09-30T02:29:24.049Z,100374.00
2022-09-30T02:31:59.862Z,100374.88
2022-09-30T02:34:37.060Z,100368.63
2022-09-30T02:37:10.226Z,100372.19
2022-09-30T02:39:43.612Z,100374.88
2022-09-30T02:42:19.140Z,100382.00
2022-09-30T02:44:47.990Z,100380.16
2022-09-30T02:47:26.640Z,100382.63
2022-09-30T02:50:03.460Z,100378.97
2022-09-30T02:52:43.440Z,100374.44
2022-09-30T02:55:20.385Z,100372.59
2022-09-30T02:58:01.348Z,100386.06
2022-09-30T03:00:30.198Z,100387.84
2022-09-30T03:03:03.165Z,100378.84
2022-09-30T03:05:33.023Z,100386.00
2022-09-30T03:08:02.821Z,100389.56
2022-09-30T03:10:31.806Z,100389.56
2022-09-30T03:13:34.743Z,100393.00
2022-09-30T03:16:17.969Z,100393.88
2022-09-30T03:19:04.602Z,100382.22
2022-09-30T03:21:56.801Z,100390.19
2022-09-30T03:25:03.788Z,100400.13
2022-09-30T03:27:42.983Z,100399.16
2022-09-30T03:30:17.912Z,100407.22
2022-09-30T03:33:04.842Z,100409.19
2022-09-30T03:35:43.967Z,100408.22
2022-09-30T03:38:24.016Z,100415.44
2022-09-30T03:41:05.869Z,100418.34
2022-09-30T03:43:41.849Z,100424.78
2022-09-30T03:46:21.350Z,100424.91
2022-09-30T03:48:52.794Z,100421.44
2022-09-30T03:51:21.699Z,100425.13
2022-09-30T03:53:53.291Z,100424.38
2022-09-30T03:56:27.461Z,100418.22
2022-09-30T03:58:56.387Z,100430.06
2022-09-30T04:01:25.260Z,100430.16
2022-09-30T04:03:54.866Z,100428.53
2022-09-30T04:06:25.245Z,100433.06
2022-09-30T04:08:54.957Z,100433.06
2022-09-30T04:11:23.184Z,100438.47
2022-09-30T04:13:51.359Z,100440.19
2022-09-30T04:16:19.645Z,100441.16
2022-09-30T04:18:47.822Z,100440.28
2022-09-30T04:21:16.564Z,100451.94
2022-09-30T04:23:45.213Z,100452.69
2022-09-30T04:26:16.954Z,100449.13
2022-09-30T04:28:45.310Z,100453.56
2022-09-30T04:31:17.802Z,100452.59
2022-09-30T04:33:46.245Z,100450.75
2022-09-30T04:36:14.421Z,100456.94
2022-09-30T04:38:42.683Z,100463.06
2022-09-30T04:41:17.293Z,100470.28
2022-09-30T04:43:46.916Z,100470.09
2022-09-30T04:46:15.737Z,100472.78
2022-09-30T04:48:45.841Z,100469.22
2022-09-30T04:51:14.364Z,100474.59
2022-09-30T04:53:43.023Z,100477.41
2022-09-30T04:56:11.285Z,100484.53
2022-09-30T04:58:41.035Z,100482.69
2022-09-30T05:01:11.920Z,100488.84
2022-09-30T05:03:40.894Z,100486.16
2022-09-30T05:06:09.555Z,100480.75
2022-09-30T05:08:41.768Z,100487.88
2022-09-30T05:11:18.486Z,100490.56
2022-09-30T05:13:49.428Z,100490.56
2022-09-30T05:16:19.438Z,100502.22
2022-09-30T05:18:47.784Z,100502.22
2022-09-30T05:21:19.608Z,100502.09
2022-09-30T05:23:48.543Z,100502.09
2022-09-30T05:26:17.096Z,100502.84
2022-09-30T05:28:45.354Z,100500.16
2022-09-30T05:31:15.096Z,100498.25
2022-09-30T05:33:43.417Z,100501.81
2022-09-30T05:36:16.807Z,100500.84
2022-09-30T05:38:44.996Z,100506.22
2022-09-30T05:41:15.540Z,100506.88
2022-09-30T05:43:47.644Z,100513.13
2022-09-30T05:46:18.760Z,100514.00
2022-09-30T05:48:47.404Z,100514.84
2022-09-30T05:51:15.642Z,100521.13
2022-09-30T05:53:44.808Z,100518.41
2022-09-30T05:56:13.630Z,100520.25
2022-09-30T05:58:42.182Z,100522.19
2022-09-30T06:01:14.296Z,100514.09
2022-09-30T06:03:45.499Z,100518.41
2022-09-30T06:06:13.996Z,100519.16
2022-09-30T06:08:43.579Z,100530.63
2022-09-30T06:11:15.729Z,100523.31
2022-09-30T06:13:45.176Z,100527.63
2022-09-30T06:16:14.401Z,100530.09
2022-09-30T06:18:44.066Z,100533.75
2022-09-30T06:21:15.394Z,100533.75
2022-09-30T06:23:44.170Z,100531.94
2022-09-30T06:26:14.298Z,100538.94
2022-09-30T06:28:44.729Z,100537.78
2022-09-30T06:31:13.164Z,100542.00
2022-09-30T06:33:43.397Z,100540.91
2022-09-30T06:36:12.027Z,100539.75
2022-09-30T06:38:40.499Z,100546.75
2022-09-30T06:41:09.553Z,100540.38
2022-09-30T06:43:44.962Z,100545.78
2022-09-30T06:46:31.004Z,100547.50
2022-09-30T06:49:12.183Z,100549.44
2022-09-30T06:51:42.028Z,100555.94
2022-09-30T06:54:10.836Z,100552.38
2022-09-30T06:56:39.113Z,100560.47
2022-09-30T06:59:07.296Z,100555.16
2022-09-30T07:01:35.570Z,100555.16
2022-09-30T07:04:09.679Z,100557.78
2022-09-30T07:06:39.018Z,100557.56
2022-09-30T07:09:08.268Z,100565.31
2022-09-30T07:11:37.680Z,100566.06
2022-09-30T07:14:05.910Z,100559.50
2022-09-30T07:16:34.864Z,100568.25
2022-09-30T07:19:05.642Z,100564.47
2022-09-30T07:21:34.032Z,100568.66
2022-09-30T07:24:02.889Z,100562.22
2022-09-30T07:26:31.161Z,100570.09
2022-09-30T07:29:00.118Z,100568.91
2022-09-30T07:31:34.136Z,100579.59
2022-09-30T07:34:07.630Z,100576.78
2022-09-30T07:36:37.929Z,100586.59
2022-09-30T07:39:09.938Z,100580.25
2022-09-30T07:41:40.869Z,100578.19
2022-09-30T07:44:14.465Z,100575.06
2022-09-30T07:46:45.142Z,100580.91
2022-09-30T07:49:25.371Z,100575.06
2022-09-30T07:51:56.529Z,100569.53
2022-09-30T07:54:28.162Z,100570.22
2022-09-30T07:57:09.803Z,100569.22
2022-09-30T07:59:41.087Z,100568.25
2022-09-30T08:02:15.333Z,100570.63
2022-09-30T08:04:45.389Z,100575.81
2022-09-30T08:07:16.322Z,100580.91
2022-09-30T08:09:44.911Z,100585.97
2022-09-30T08:12:13.215Z,100590.28
2022-09-30T08:14:41.643Z,100588.03
2022-09-30T08:17:09.841Z,100576.00
2022-09-30T08:19:38.208Z,100586.41
2022-09-30T08:22:10.524Z,100580.66
2022-09-30T08:24:38.698Z,100584.84
2022-09-30T08:27:06.916Z,100590.03
2022-09-30T08:29:53.927Z,100592.63
2022-09-30T08:32:23.232Z,100590.69
2022-09-30T08:34:51.383Z,100593.16
2022-09-30T08:37:20.900Z,100587.75
2022-09-30T08:39:49.329Z,100602.13
2022-09-30T08:42:38.025Z,100600.16
2022-09-30T08:45:20.817Z,100595.41
2022-09-30T08:48:00.355Z,100599.50
2022-09-30T08:50:37.691Z,100605.41
2022-09-30T08:53:14.512Z,100597.97
2022-09-30T08:55:46.030Z,100601.28
2022-09-30T08:58:26.479Z,100599.09
2022-09-30T09:00:59.843Z,100602.22
2022-09-30T09:03:31.186Z,100599.16
2022-09-30T09:06:15.922Z,100598.97
2022-09-30T09:09:07.163Z,100606.09
2022-09-30T09:11:52.321Z,100606.84
2022-09-30T09:14:39.244Z,100612.25
2022-09-30T09:17:26.226Z,100606.59
2022-09-30T09:20:03.725Z,100607.97
2022-09-30T09:22:35.266Z,100605.56
2022-09-30T09:25:06.038Z,100611.84
2022-09-30T09:27:49.895Z,100609.25
2022-09-30T09:30:22.711Z,100614.78
2022-09-30T09:32:55.199Z,100616.63
2022-09-30T09:35:38.661Z,100626.97
2022-09-30T09:38:26.020Z,100627.38
2022-09-30T09:41:17.211Z,100621.91
2022-09-30T09:43:58.437Z,100635.16
2022-09-30T09:46:31.811Z,100623.25
2022-09-30T09:49:41.552Z,100628.44
2022-09-30T09:53:01.098Z,100631.06
2022-09-30T09:55:29.310Z,100625.44
2022-09-30T09:58:14.067Z,100624.44
2022-09-30T10:01:13.275Z,100629.88
2022-09-30T10:03:42.781Z,100630.59
2022-09-30T10:06:13.639Z,100626.31
2022-09-30T10:08:57.474Z,100631.25
2022-09-30T10:11:27.856Z,100623.19
2022-09-30T10:13:59.514Z,100623.72
2022-09-30T10:16:32.803Z,100618.31
2022-09-30T10:19:03.990Z,100615.31
2022-09-30T10:21:35.482Z,100620.59
2022-09-30T10:24:26.416Z,100630.34
2022-09-30T10:26:54.563Z,100628.66
2022-09-30T10:29:36.485Z,100616.19
2022-09-30T10:32:09.912Z,100628.16
2022-09-30T10:34:42.123Z,100621.88
2022-09-30T10:37:15.999Z,100623.72
2022-09-30T10:39:45.943Z,100619.16
2022-09-30T10:42:26.087Z,100624.53
2022-09-30T10:44:58.796Z,100619.31
2022-09-30T10:47:31.223Z,100621.41
2022-09-30T10:50:05.574Z,100623.13
2022-09-30T10:52:37.076Z,100625.84
2022-09-30T10:55:14.621Z,100626.56
2022-09-30T10:57:45.059Z,100631.88
2022-09-30T11:00:21.770Z,100625.59
2022-09-30T11:02:57.424Z,100628.31
2022-09-30T11:05:32.909Z,100622.75
2022-09-30T11:08:07.577Z,100628.03
2022-09-30T11:10:46.314Z,100625.94
2022-09-30T11:13:21.527Z,100620.63
2022-09-30T11:16:02.891Z,100627.91
2022-09-30T11:18:39.368Z,100624.41
2022-09-30T11:21:16.209Z,100626.69
2022-09-30T11:23:49.821Z,100622.19
2022-09-30T11:26:34.060Z,100627.50
2022-09-30T11:29:22.305Z,100624.66
2022-09-30T11:31:59.664Z,100620.94
2022-09-30T11:34:45.070Z,100620.06
2022-09-30T11:37:24.313Z,100617.13
2022-09-30T11:40:27.585Z,100622.81
2022-09-30T11:43:03.134Z,100618.47
2022-09-30T11:45:47.671Z,100621.44
2022-09-30T11:48:35.703Z,100619.56
2022-09-30T11:51:19.721Z,100621.28
2022-09-30T11:54:02.103Z,100622.63
2022-09-30T11:56:44.297Z,100616.06
2022-09-30T11:59:21.922Z,100621.81
2022-09-30T12:01:55.395Z,100623.34
2022-09-30T12:04:32.559Z,100620.97
2022-09-30T12:07:05.211Z,100621.56
2022-09-30T12:09:37.263Z,100619.06
2022-09-30T12:12:15.983Z,100618.56
2022-09-30T12:14:49.769Z,100623.56
2022-09-30T12:17:27.891Z,100626.34
2022-09-30T12:20:03.768Z,100623.81
2022-09-30T12:22:39.553Z,100620.38
2022-09-30T12:25:18.527Z,100621.00
2022-09-30T12:27:53.456Z,100621.00
2022-09-30T12:30:23.053Z,100617.81
2022-09-30T12:33:19.686Z,100619.47
2022-09-30T12:37:03.001Z,100618.31
2022-09-30T12:40:18.934Z,100618.00
2022-09-30T12:43:44.273Z,100613.25
2022-09-30T12:46:26.166Z,100605.75
2022-09-30T12:48:59.425Z,100611.47
2022-09-30T12:51:32.234Z,100616.19
2022-09-30T12:54:06.728Z,100619.91
2022-09-30T12:56:37.607Z,100623.63
2022-09-30T12:59:05.992Z,100618.44
2022-09-30T13:01:39.381Z,100609.28
2022-09-30T13:04:31.970Z,100618.44
2022-09-30T13:07:24.116Z,100614.00
2022-09-30T13:10:31.575Z,100615.69
2022-09-30T13:13:25.340Z,100612.78
2022-09-30T13:15:56.256Z,100613.19
2022-09-30T13:19:02.768Z,100606.66
2022-09-30T13:21:32.510Z,100610.38
2022-09-30T13:24:01.758Z,100608.63
2022-09-30T13:26:46.387Z,100601.63
2022-09-30T13:29:49.654Z,100603.47
2022-09-30T13:32:34.740Z,100594.72
2022-09-30T13:35:02.947Z,100603.59
2022-09-30T13:37:40.827Z,100600.88
2022-09-30T13:40:43.250Z,100599.88
2022-09-30T13:43:21.400Z,100589.00
2022-09-30T13:45:52.769Z,100593.41
2022-09-30T13:48:26.917Z,100595.84
2022-09-30T13:50:57.144Z,100584.34
2022-09-30T13:53:32.223Z,100592.94
2022-09-30T13:56:06.389Z,100579.06
2022-09-30T13:59:04.046Z,100580.38
2022-09-30T14:01:59.696Z,100581.41
2022-09-30T14:05:11.553Z,100576.00
2022-09-30T14:07:53.095Z,100576.72
2022-09-30T14:10:45.979Z,100572.41
2022-09-30T14:13:32.450Z,100568.84
2022-09-30T14:16:44.771Z,100574.84
2022-09-30T14:19:43.647Z,100575.38
2022-09-30T14:22:15.619Z,100566.78
2022-09-30T14:24:44.133Z,100565.03
2022-09-30T14:27:37.236Z,100572.28
2022-09-30T14:30:12.483Z,100569.41
2022-09-30T14:32:49.267Z,100571.50
2022-09-30T14:35:21.817Z,100568.34
2022-09-30T14:37:54.579Z,100564.03
2022-09-30T14:40:34.110Z,100563.28
2022-09-30T14:43:06.519Z,100562.44
2022-09-30T14:45:38.929Z,100561.00
2022-09-30T14:48:12.838Z,100558.69
2022-09-30T14:50:48.462Z,100566.47
2022-09-30T14:53:29.089Z,100569.47
2022-09-30T14:55:57.894Z,100565.16
2022-09-30T14:58:30.414Z,100570.00
2022-09-30T15:01:07.042Z,100569.41
2022-09-30T15:03:41.322Z,100576.97
2022-09-30T15:06:20.376Z,100570.09
2022-09-30T15:08:49.842Z,100570.31
2022-09-30T15:11:24.115Z,100565.88
2022-09-30T15:14:00.664Z,100566.88
2022-09-30T15:16:31.659Z,100567.03
2022-09-30T15:19:02.527Z,100564.59
2022-09-30T15:21:33.489Z,100566.72
2022-09-30T15:24:02.977Z,100566.09
2022-09-30T15:26:34.018Z,100565.38
2022-09-30T15:29:05.527Z,100566.34
2022-09-30T15:31:35.529Z,100560.19
2022-09-30T15:34:12.613Z,100560.34
2022-09-30T15:36:40.915Z,100564.91
2022-09-30T15:39:24.727Z,100565.03
2022-09-30T15:41:53.411Z,100569.47
2022-09-30T15:44:41.253Z,100552.56
2022-09-30T15:47:11.542Z,100557.91
2022-09-30T15:49:50.338Z,100565.03
2022-09-30T15:52:33.443Z,100561.56
2022-09-30T15:55:01.680Z,100560.97
2022-09-30T15:57:46.901Z,100557.94
2022-09-30T16:00:47.710Z,100558.72
2022-09-30T16:03:28.891Z,100547.50
2022-09-30T16:06:10.159Z,100549.63
2022-09-30T16:08:45.261Z,100556.19
2022-09-30T16:11:23.054Z,100544.72
2022-09-30T16:13:52.344Z,100557.81
2022-09-30T16:16:24.070Z,100553.63
2022-09-30T16:18:54.731Z,100555.88
2022-09-30T16:21:45.897Z,100558.09
2022-09-30T16:24:44.531Z,100557.63
2022-09-30T16:27:34.034Z,100557.13
2022-09-30T16:30:03.043Z,100552.06
2022-09-30T16:32:41.136Z,100553.69
2022-09-30T16:35:19.007Z,100551.50
2022-09-30T16:37:49.772Z,100540.53
2022-09-30T16:40:23.372Z,100546.56
2022-09-30T16:42:54.822Z,100549.91
2022-09-30T16:45:24.069Z,100543.25
2022-09-30T16:47:52.857Z,100552.88
2022-09-30T16:50:31.575Z,100558.78
2022-09-30T16:53:01.227Z,100545.88
2022-09-30T16:55:30.378Z,100561.75
2022-09-30T16:58:00.134Z,100555.09
2022-09-30T17:00:29.669Z,100553.00
2022-09-30T17:02:57.983Z,100553.44
2022-09-30T17:05:28.105Z,100556.66
2022-09-30T17:07:59.225Z,100559.88
2022-09-30T17:10:31.165Z,100562.06
2022-09-30T17:13:01.196Z,100558.84
2022-09-30T17:15:31.526Z,100564.59
2022-09-30T17:18:00.618Z,100569.38
2022-09-30T17:20:29.094Z,100566.91
2022-09-30T17:22:57.292Z,100570.59
2022-09-30T17:25:25.537Z,100570.59
2022-09-30T17:27:55.346Z,100563.47
2022-09-30T17:30:23.926Z,100562.59
2022-09-30T17:32:54.425Z,100561.72
2022-09-30T17:35:22.651Z,100560.00
2022-09-30T17:37:50.936Z,100552.84
2022-09-30T17:40:36.715Z,100560.22
2022-09-30T17:43:10.835Z,100573.13
2022-09-30T17:45:42.104Z,100568.09
2022-09-30T17:48:11.314Z,100567.44
2022-09-30T17:50:42.301Z,100567.78
2022-09-30T17:53:13.102Z,100570.00
2022-09-30T17:55:42.150Z,100563.06
2022-09-30T17:58:12.459Z,100573.16
2022-09-30T18:00:41.515Z,100565.16
2022-09-30T18:03:10.413Z,100568.84
2022-09-30T18:05:38.970Z,100572.53
2022-09-30T18:08:07.198Z,100571.66
2022-09-30T18:10:37.989Z,100571.66
2022-09-30T18:13:06.732Z,100575.56
2022-09-30T18:15:38.855Z,100573.84
2022-09-30T18:18:07.974Z,100569.78
2022-09-30T18:20:36.202Z,100567.41
2022-09-30T18:23:04.395Z,100568.59
2022-09-30T18:25:32.609Z,100572.53
2022-09-30T18:28:01.028Z,100571.25
2022-09-30T18:30:29.290Z,100571.59
2022-09-30T18:32:59.070Z,100571.84
2022-09-30T18:35:27.802Z,100567.59
2022-09-30T18:37:55.938Z,100564.28
2022-09-30T18:40:26.886Z,100562.78
2022-09-30T18:42:58.442Z,100563.03
2022-09-30T18:45:27.475Z,100559.53
2022-09-30T18:47:59.136Z,100566.03
2022-09-30T18:50:29.854Z,100560.88
2022-09-30T18:52:58.931Z,100547.69
2022-09-30T18:55:28.014Z,100542.50
2022-09-30T18:57:57.280Z,100551.81
2022-09-30T19:00:27.044Z,100550.31
2022-09-30T19:02:55.217Z,100544.16
2022-09-30T19:05:24.825Z,100543.38
2022-09-30T19:07:54.411Z,100544.47
2022-09-30T19:10:25.028Z,100546.44
2022-09-30T19:12:53.253Z,100548.28
2022-09-30T19:15:23.522Z,100539.53
2022-09-30T19:17:53.651Z,100544.09
2022-09-30T19:20:22.629Z,100537.94
2022-09-30T19:22:52.259Z,100542.56
2022-09-30T19:25:20.726Z,100530.97
2022-09-30T19:27:49.517Z,100536.47
2022-09-30T19:30:17.854Z,100534.88
2022-09-30T19:32:46.057Z,100530.44
2022-09-30T19:35:14.769Z,100524.31
2022-09-30T19:37:56.993Z,100528.72
2022-09-30T19:43:05.297Z,100519.00
2022-09-30T19:45:33.667Z,100512.75
2022-09-30T19:48:03.112Z,100518.16
2022-09-30T19:50:31.271Z,100520.84
2022-09-30T19:53:00.091Z,100516.41
2022-09-30T19:55:28.518Z,100510.13
2022-09-30T19:57:58.505Z,100503.13
2022-09-30T20:00:26.745Z,100495.03
2022-09-30T20:02:56.242Z,100493.41
2022-09-30T20:05:24.412Z,100499.03
2022-09-30T20:07:53.527Z,100492.03
2022-09-30T20:10:21.844Z,100486.81
2022-09-30T20:12:50.005Z,100487.06
2022-09-30T20:15:37.423Z,100482.63
2022-09-30T20:18:06.205Z,100479.06
2022-09-30T20:20:38.415Z,100475.63
2022-09-30T20:23:06.689Z,100472.28
2022-09-30T20:25:36.282Z,100474.13
2022-09-30T20:28:05.481Z,100467.75
2022-09-30T20:30:39.770Z,100461.56
2022-09-30T20:33:07.951Z,100460.72
2022-09-30T20:35:36.881Z,100451.75
2022-09-30T20:38:05.272Z,100464.50
2022-09-30T20:40:34.756Z,100459.22
2022-09-30T20:43:04.169Z,100460.41
2022-09-30T20:45:32.450Z,100464.94
2022-09-30T20:48:02.988Z,100464.22
2022-09-30T20:50:36.923Z,100463.34
2022-09-30T20:53:11.194Z,100459.00
2022-09-30T20:55:43.409Z,100452.84
2022-09-30T20:58:13.734Z,100455.66
2022-09-30T21:00:43.531Z,100458.59
2022-09-30T21:03:15.517Z,100455.16
2022-09-30T21:05:53.481Z,100456.19
2022-09-30T21:08:21.730Z,100450.91
2022-09-30T21:10:50.266Z,100451.88
2022-09-30T21:13:18.580Z,100452.97
2022-09-30T21:15:46.774Z,100449.53
2022-09-30T21:18:16.358Z,100445.22
2022-09-30T21:20:44.530Z,100447.91
2022-09-30T21:23:16.045Z,100447.16
2022-09-30T21:25:49.043Z,100448.22
2022-09-30T21:28:17.306Z,100441.22
2022-09-30T21:30:45.506Z,100431.50
2022-09-30T21:33:15.277Z,100442.41
2022-09-30T21:35:43.469Z,100435.28
2022-09-30T21:38:16.246Z,100426.44
2022-09-30T21:40:44.817Z,100422.97
2022-09-30T21:43:13.269Z,100421.25
2022-09-30T21:45:42.468Z,100419.53
2022-09-30T21:48:12.387Z,100424.91
2022-09-30T21:50:41.954Z,100418.66
2022-09-30T21:53:10.108Z,100413.50
2022-09-30T21:55:38.565Z,100402.72
2022-09-30T21:58:06.815Z,100409.19
2022-09-30T22:00:36.030Z,100411.03
2022-09-30T22:03:04.276Z,100411.13
2022-09-30T22:05:33.082Z,100403.13
2022-09-30T22:08:02.945Z,100400.53
2022-09-30T22:10:31.135Z,100412.28
2022-09-30T22:12:59.893Z,100409.72
2022-09-30T22:15:28.287Z,100404.44
2022-09-30T22:17:56.516Z,100400.97
2022-09-30T22:20:24.859Z,100397.41
2022-09-30T22:22:53.125Z,100402.06
2022-09-30T22:25:24.903Z,100393.97
2022-09-30T22:27:53.144Z,100391.28
2022-09-30T22:30:21.535Z,100391.38
2022-09-30T22:33:09.893Z,100390.53
2022-09-30T22:35:55.323Z,100396.00
2022-09-30T22:38:23.984Z,100388.88
2022-09-30T22:40:55.618Z,100384.47
2022-09-30T22:43:24.768Z,100381.88
2022-09-30T22:46:03.223Z,100384.56
2022-09-30T22:48:32.926Z,100380.03
2022-09-30T22:51:01.935Z,100373.69
2022-09-30T22:53:30.718Z,100369.16
2022-09-30T22:56:05.354Z,100363.75
2022-09-30T22:58:36.820Z,100352.00
2022-09-30T23:01:05.763Z,100357.50
2022-09-30T23:03:34.878Z,100350.28
2022-09-30T23:06:05.236Z,100347.69
2022-09-30T23:08:41.489Z,100346.84
2022-09-30T23:11:16.545Z,100349.53
2022-09-30T23:13:46.354Z,100344.25
2022-09-30T23:16:16.487Z,100338.84
2022-09-30T23:18:46.957Z,100334.34
2022-09-30T23:21:18.421Z,100334.34
2022-09-30T23:23:49.245Z,100336.16
2022-09-30T23:26:21.515Z,100330.78
2022-09-30T23:28:49.703Z,100322.81
2022-09-30T23:31:19.473Z,100320.09
2022-09-30T23:33:50.064Z,100316.53
2022-09-30T23:36:20.210Z,100313.84
2022-09-30T23:38:49.258Z,100309.44
2022-09-30T23:41:18.780Z,100304.16
2022-09-30T23:43:48.481Z,100295.22
2022-09-30T23:46:19.730Z,100294.22
2022-09-30T23:48:47.928Z,100280.75
2022-09-30T23:51:16.219Z,100271.69
2022-09-30T23:53:44.434Z,100270.84
2022-09-30T23:56:15.383Z,100261.78
2022-09-30T23:58:48.610Z,100262.63
